sensor_id;sensor_type;location;lat;lon;timestamp;P1;durP1;ratioP1;P2;durP2;ratioP2
1885;SDS011;943;51.568;6.998;2022-11-28T00:01:40;9.00;;;5.03;;
1885;SDS011;943;51.568;6.998;2022-11-28T00:04:13;7.30;;;5.00;;
1885;SDS011;943;51.568;6.998;2022-11-28T00:06:42;11.33;;;5.87;;
1885;SDS011;943;51.568;6.998;2022-11-28T00:09:16;7.43;;;5.20;;
1885;SDS011;943;51.568;6.998;2022-11-28T00:11:47;8.03;;;5.17;;
1885;SDS011;943;51.568;6.998;2022-11-28T00:14:16;8.50;;;5.40;;
1885;SDS011;943;51.568;6.998;2022-11-28T00:16:46;9.60;;;5.93;;
1885;SDS011;943;51.568;6.998;2022-11-28T00:19:14;7.10;;;5.33;;
1885;SDS011;943;51.568;6.998;2022-11-28T00:21:41;8.10;;;5.83;;
1885;SDS011;943;51.568;6.998;2022-11-28T00:24:09;6.80;;;5.77;;
1885;SDS011;943;51.568;6.998;2022-11-28T00:26:38;13.50;;;6.10;;
1885;SDS011;943;51.568;6.998;2022-11-28T00:29:08;8.20;;;5.67;;
1885;SDS011;943;51.568;6.998;2022-11-28T00:31:38;9.40;;;6.30;;
1885;SDS011;943;51.568;6.998;2022-11-28T00:34:10;11.10;;;6.47;;
1885;SDS011;943;51.568;6.998;2022-11-28T00:36:42;8.50;;;6.27;;
1885;SDS011;943;51.568;6.998;2022-11-28T00:39:13;9.53;;;6.40;;
1885;SDS011;943;51.568;6.998;2022-11-28T00:41:43;8.73;;;5.53;;
1885;SDS011;943;51.568;6.998;2022-11-28T00:44:11;9.73;;;6.00;;
1885;SDS011;943;51.568;6.998;2022-11-28T00:46:40;9.67;;;5.87;;
1885;SDS011;943;51.568;6.998;2022-11-28T00:49:08;8.33;;;6.17;;
1885;SDS011;943;51.568;6.998;2022-11-28T00:51:36;8.53;;;6.20;;
1885;SDS011;943;51.568;6.998;2022-11-28T00:54:05;9.80;;;6.17;;
1885;SDS011;943;51.568;6.998;2022-11-28T00:56:35;8.50;;;6.07;;
1885;SDS011;943;51.568;6.998;2022-11-28T00:59:06;8.50;;;6.33;;
1885;SDS011;943;51.568;6.998;2022-11-28T01:01:35;9.47;;;6.00;;
1885;SDS011;943;51.568;6.998;2022-11-28T01:04:10;7.47;;;5.37;;
1885;SDS011;943;51.568;6.998;2022-11-28T01:06:44;8.13;;;5.53;;
1885;SDS011;943;51.568;6.998;2022-11-28T01:09:18;11.20;;;6.10;;
1885;SDS011;943;51.568;6.998;2022-11-28T01:11:49;8.67;;;5.93;;
1885;SDS011;943;51.568;6.998;2022-11-28T01:14:20;9.23;;;5.93;;
1885;SDS011;943;51.568;6.998;2022-11-28T01:16:51;9.73;;;5.90;;
1885;SDS011;943;51.568;6.998;2022-11-28T01:19:19;6.57;;;5.27;;
1885;SDS011;943;51.568;6.998;2022-11-28T01:21:48;7.50;;;5.60;;
1885;SDS011;943;51.568;6.998;2022-11-28T01:24:16;9.27;;;5.77;;
1885;SDS011;943;51.568;6.998;2022-11-28T01:26:44;9.73;;;5.87;;
1885;SDS011;943;51.568;6.998;2022-11-28T01:29:12;10.40;;;5.70;;
1885;SDS011;943;51.568;6.998;2022-11-28T01:31:40;8.73;;;5.73;;
1885;SDS011;943;51.568;6.998;2022-11-28T01:34:08;6.90;;;5.53;;
1885;SDS011;943;51.568;6.998;2022-11-28T01:36:35;9.10;;;6.20;;
1885;SDS011;943;51.568;6.998;2022-11-28T01:39:04;9.37;;;6.03;;
1885;SDS011;943;51.568;6.998;2022-11-28T01:41:31;17.40;;;6.60;;
1885;SDS011;943;51.568;6.998;2022-11-28T01:46:39;8.00;;;6.20;;
1885;SDS011;943;51.568;6.998;2022-11-28T01:52:04;9.73;;;6.50;;
1885;SDS011;943;51.568;6.998;2022-11-28T01:54:39;8.13;;;6.60;;
1885;SDS011;943;51.568;6.998;2022-11-28T01:57:16;9.23;;;5.73;;
1885;SDS011;943;51.568;6.998;2022-11-28T02:03:05;11.80;;;6.20;;
1885;SDS011;943;51.568;6.998;2022-11-28T02:05:47;8.53;;;5.93;;
1885;SDS011;943;51.568;6.998;2022-11-28T02:08:18;6.60;;;5.00;;
1885;SDS011;943;51.568;6.998;2022-11-28T02:21:12;12.73;;;7.63;;
1885;SDS011;943;51.568;6.998;2022-11-28T02:34:27;10.20;;;6.00;;
1885;SDS011;943;51.568;6.998;2022-11-28T02:43:56;7.73;;;5.77;;
1885;SDS011;943;51.568;6.998;2022-11-28T02:53:06;8.50;;;5.50;;
1885;SDS011;943;51.568;6.998;2022-11-28T02:55:44;7.20;;;5.90;;
1885;SDS011;943;51.568;6.998;2022-11-28T02:58:16;7.50;;;5.20;;
1885;SDS011;943;51.568;6.998;2022-11-28T03:00:45;8.90;;;6.00;;
1885;SDS011;943;51.568;6.998;2022-11-28T03:03:22;9.93;;;6.63;;
1885;SDS011;943;51.568;6.998;2022-11-28T03:16:26;10.30;;;6.50;;
1885;SDS011;943;51.568;6.998;2022-11-28T03:19:19;8.93;;;6.00;;
1885;SDS011;943;51.568;6.998;2022-11-28T03:22:13;9.00;;;6.80;;
1885;SDS011;943;51.568;6.998;2022-11-28T03:28:45;11.40;;;7.60;;
1885;SDS011;943;51.568;6.998;2022-11-28T03:31:24;9.00;;;7.53;;
1885;SDS011;943;51.568;6.998;2022-11-28T03:34:01;8.87;;;7.13;;
1885;SDS011;943;51.568;6.998;2022-11-28T03:36:37;9.10;;;6.57;;
1885;SDS011;943;51.568;6.998;2022-11-28T03:39:39;12.00;;;7.07;;
1885;SDS011;943;51.568;6.998;2022-11-28T03:42:23;10.10;;;5.60;;
1885;SDS011;943;51.568;6.998;2022-11-28T03:45:06;10.03;;;6.50;;
1885;SDS011;943;51.568;6.998;2022-11-28T03:47:48;9.63;;;7.00;;
1885;SDS011;943;51.568;6.998;2022-11-28T03:50:39;10.03;;;6.43;;
1885;SDS011;943;51.568;6.998;2022-11-28T03:53:23;8.60;;;6.20;;
1885;SDS011;943;51.568;6.998;2022-11-28T03:56:27;9.50;;;6.27;;
1885;SDS011;943;51.568;6.998;2022-11-28T03:59:22;8.93;;;6.53;;
1885;SDS011;943;51.568;6.998;2022-11-28T04:10:59;11.47;;;7.40;;
1885;SDS011;943;51.568;6.998;2022-11-28T04:13:59;9.13;;;6.60;;
1885;SDS011;943;51.568;6.998;2022-11-28T04:17:04;7.70;;;6.10;;
1885;SDS011;943;51.568;6.998;2022-11-28T04:19:51;9.67;;;7.57;;
1885;SDS011;943;51.568;6.998;2022-11-28T04:22:58;11.00;;;6.30;;
1885;SDS011;943;51.568;6.998;2022-11-28T04:25:37;11.93;;;6.73;;
1885;SDS011;943;51.568;6.998;2022-11-28T04:28:19;11.33;;;7.27;;
1885;SDS011;943;51.568;6.998;2022-11-28T04:30:55;8.57;;;6.13;;
1885;SDS011;943;51.568;6.998;2022-11-28T04:33:28;8.40;;;6.27;;
1885;SDS011;943;51.568;6.998;2022-11-28T04:36:06;9.73;;;7.00;;
1885;SDS011;943;51.568;6.998;2022-11-28T04:38:38;8.80;;;7.47;;
1885;SDS011;943;51.568;6.998;2022-11-28T04:41:20;11.03;;;7.10;;
1885;SDS011;943;51.568;6.998;2022-11-28T04:44:11;8.57;;;6.93;;
1885;SDS011;943;51.568;6.998;2022-11-28T04:46:53;9.40;;;6.53;;
1885;SDS011;943;51.568;6.998;2022-11-28T04:49:23;8.53;;;6.00;;
1885;SDS011;943;51.568;6.998;2022-11-28T04:58:38;10.20;;;6.17;;
1885;SDS011;943;51.568;6.998;2022-11-28T05:01:13;8.53;;;6.20;;
1885;SDS011;943;51.568;6.998;2022-11-28T05:03:57;11.07;;;6.90;;
1885;SDS011;943;51.568;6.998;2022-11-28T05:06:30;11.20;;;7.27;;
1885;SDS011;943;51.568;6.998;2022-11-28T05:09:03;11.47;;;6.63;;
1885;SDS011;943;51.568;6.998;2022-11-28T05:11:31;9.50;;;6.90;;
1885;SDS011;943;51.568;6.998;2022-11-28T05:13:59;9.03;;;5.87;;
1885;SDS011;943;51.568;6.998;2022-11-28T05:16:27;7.30;;;6.10;;
1885;SDS011;943;51.568;6.998;2022-11-28T05:18:54;15.83;;;6.97;;
1885;SDS011;943;51.568;6.998;2022-11-28T05:21:22;11.50;;;6.70;;
1885;SDS011;943;51.568;6.998;2022-11-28T05:23:50;14.47;;;7.40;;
1885;SDS011;943;51.568;6.998;2022-11-28T05:26:19;10.73;;;7.13;;
1885;SDS011;943;51.568;6.998;2022-11-28T05:28:48;12.87;;;6.40;;
1885;SDS011;943;51.568;6.998;2022-11-28T05:31:18;8.60;;;6.10;;
1885;SDS011;943;51.568;6.998;2022-11-28T05:33:47;11.37;;;7.50;;
1885;SDS011;943;51.568;6.998;2022-11-28T05:36:15;13.90;;;7.70;;
1885;SDS011;943;51.568;6.998;2022-11-28T05:38:44;11.07;;;6.60;;
1885;SDS011;943;51.568;6.998;2022-11-28T05:41:19;10.57;;;7.40;;
1885;SDS011;943;51.568;6.998;2022-11-28T05:43:58;8.70;;;7.80;;
1885;SDS011;943;51.568;6.998;2022-11-28T05:46:27;12.63;;;7.53;;
1885;SDS011;943;51.568;6.998;2022-11-28T05:48:56;13.13;;;7.47;;
1885;SDS011;943;51.568;6.998;2022-11-28T05:51:24;9.90;;;6.73;;
1885;SDS011;943;51.568;6.998;2022-11-28T05:53:51;15.30;;;6.83;;
1885;SDS011;943;51.568;6.998;2022-11-28T05:56:19;12.30;;;7.30;;
1885;SDS011;943;51.568;6.998;2022-11-28T05:58:48;13.20;;;7.50;;
1885;SDS011;943;51.568;6.998;2022-11-28T06:01:20;13.30;;;8.27;;
1885;SDS011;943;51.568;6.998;2022-11-28T06:03:54;10.33;;;7.90;;
1885;SDS011;943;51.568;6.998;2022-11-28T06:06:27;10.93;;;7.80;;
1885;SDS011;943;51.568;6.998;2022-11-28T06:09:00;10.67;;;7.53;;
1885;SDS011;943;51.568;6.998;2022-11-28T06:11:31;11.90;;;6.80;;
1885;SDS011;943;51.568;6.998;2022-11-28T06:14:01;12.80;;;7.30;;
1885;SDS011;943;51.568;6.998;2022-11-28T06:16:29;10.33;;;8.00;;
1885;SDS011;943;51.568;6.998;2022-11-28T06:18:59;15.50;;;8.63;;
1885;SDS011;943;51.568;6.998;2022-11-28T06:21:31;12.17;;;7.90;;
1885;SDS011;943;51.568;6.998;2022-11-28T06:23:59;10.27;;;7.37;;
1885;SDS011;943;51.568;6.998;2022-11-28T06:26:27;12.23;;;7.50;;
1885;SDS011;943;51.568;6.998;2022-11-28T06:28:55;11.37;;;7.67;;
1885;SDS011;943;51.568;6.998;2022-11-28T06:31:24;10.43;;;7.10;;
1885;SDS011;943;51.568;6.998;2022-11-28T06:33:57;11.80;;;8.00;;
1885;SDS011;943;51.568;6.998;2022-11-28T06:36:25;8.67;;;7.37;;
1885;SDS011;943;51.568;6.998;2022-11-28T06:38:56;12.40;;;8.03;;
1885;SDS011;943;51.568;6.998;2022-11-28T06:41:23;8.80;;;7.23;;
1885;SDS011;943;51.568;6.998;2022-11-28T06:43:51;10.60;;;7.73;;
1885;SDS011;943;51.568;6.998;2022-11-28T06:46:19;10.10;;;8.27;;
1885;SDS011;943;51.568;6.998;2022-11-28T06:48:49;11.37;;;8.60;;
1885;SDS011;943;51.568;6.998;2022-11-28T06:51:18;9.83;;;7.57;;
1885;SDS011;943;51.568;6.998;2022-11-28T06:53:47;13.33;;;9.10;;
1885;SDS011;943;51.568;6.998;2022-11-28T06:56:17;8.70;;;6.17;;
1885;SDS011;943;51.568;6.998;2022-11-28T06:58:46;12.97;;;9.23;;
1885;SDS011;943;51.568;6.998;2022-11-28T07:01:24;11.90;;;7.50;;
1885;SDS011;943;51.568;6.998;2022-11-28T07:03:57;9.40;;;7.43;;
1885;SDS011;943;51.568;6.998;2022-11-28T07:06:26;11.03;;;7.23;;
1885;SDS011;943;51.568;6.998;2022-11-28T07:08:55;10.80;;;7.40;;
1885;SDS011;943;51.568;6.998;2022-11-28T07:11:26;9.47;;;7.20;;
1885;SDS011;943;51.568;6.998;2022-11-28T07:13:59;11.03;;;7.90;;
1885;SDS011;943;51.568;6.998;2022-11-28T07:16:29;11.23;;;7.73;;
1885;SDS011;943;51.568;6.998;2022-11-28T07:18:59;9.67;;;7.40;;
1885;SDS011;943;51.568;6.998;2022-11-28T07:21:27;13.20;;;7.90;;
1885;SDS011;943;51.568;6.998;2022-11-28T07:23:57;9.80;;;7.67;;
1885;SDS011;943;51.568;6.998;2022-11-28T07:26:26;9.33;;;7.40;;
1885;SDS011;943;51.568;6.998;2022-11-28T07:28:54;9.60;;;7.03;;
1885;SDS011;943;51.568;6.998;2022-11-28T07:31:23;14.07;;;8.27;;
1885;SDS011;943;51.568;6.998;2022-11-28T07:33:58;11.37;;;8.13;;
1885;SDS011;943;51.568;6.998;2022-11-28T07:36:29;10.10;;;8.07;;
1885;SDS011;943;51.568;6.998;2022-11-28T07:38:58;11.37;;;7.60;;
1885;SDS011;943;51.568;6.998;2022-11-28T07:41:30;9.63;;;7.53;;
1885;SDS011;943;51.568;6.998;2022-11-28T07:43:59;8.70;;;7.47;;
1885;SDS011;943;51.568;6.998;2022-11-28T07:46:30;10.83;;;7.80;;
1885;SDS011;943;51.568;6.998;2022-11-28T07:49:00;9.53;;;7.07;;
1885;SDS011;943;51.568;6.998;2022-11-28T07:51:34;10.43;;;7.53;;
1885;SDS011;943;51.568;6.998;2022-11-28T07:54:03;13.43;;;7.90;;
1885;SDS011;943;51.568;6.998;2022-11-28T07:56:32;10.33;;;7.70;;
1885;SDS011;943;51.568;6.998;2022-11-28T07:59:24;12.40;;;7.73;;
1885;SDS011;943;51.568;6.998;2022-11-28T08:01:52;11.23;;;8.33;;
1885;SDS011;943;51.568;6.998;2022-11-28T08:04:19;12.70;;;7.60;;
1885;SDS011;943;51.568;6.998;2022-11-28T08:06:48;12.60;;;8.20;;
1885;SDS011;943;51.568;6.998;2022-11-28T08:09:18;13.03;;;8.30;;
1885;SDS011;943;51.568;6.998;2022-11-28T08:11:45;9.53;;;7.50;;
1885;SDS011;943;51.568;6.998;2022-11-28T08:14:13;10.57;;;7.80;;
1885;SDS011;943;51.568;6.998;2022-11-28T08:16:41;10.70;;;7.30;;
1885;SDS011;943;51.568;6.998;2022-11-28T08:19:10;10.57;;;7.00;;
1885;SDS011;943;51.568;6.998;2022-11-28T08:21:38;9.77;;;7.33;;
1885;SDS011;943;51.568;6.998;2022-11-28T08:24:07;10.63;;;6.60;;
1885;SDS011;943;51.568;6.998;2022-11-28T08:26:37;14.80;;;7.47;;
1885;SDS011;943;51.568;6.998;2022-11-28T08:29:05;11.10;;;7.57;;
1885;SDS011;943;51.568;6.998;2022-11-28T08:31:34;9.17;;;7.53;;
1885;SDS011;943;51.568;6.998;2022-11-28T08:34:06;13.00;;;8.30;;
1885;SDS011;943;51.568;6.998;2022-11-28T08:36:36;11.37;;;7.57;;
1885;SDS011;943;51.568;6.998;2022-11-28T08:39:05;10.77;;;7.70;;
1885;SDS011;943;51.568;6.998;2022-11-28T08:41:50;11.13;;;7.80;;
1885;SDS011;943;51.568;6.998;2022-11-28T08:44:25;11.43;;;7.20;;
1885;SDS011;943;51.568;6.998;2022-11-28T08:46:55;11.83;;;7.00;;
1885;SDS011;943;51.568;6.998;2022-11-28T08:49:23;11.80;;;7.80;;
1885;SDS011;943;51.568;6.998;2022-11-28T08:51:51;9.07;;;7.50;;
1885;SDS011;943;51.568;6.998;2022-11-28T08:54:18;14.73;;;8.93;;
1885;SDS011;943;51.568;6.998;2022-11-28T08:56:47;9.43;;;7.90;;
1885;SDS011;943;51.568;6.998;2022-11-28T08:59:15;12.63;;;8.30;;
1885;SDS011;943;51.568;6.998;2022-11-28T09:01:42;11.13;;;8.03;;
1885;SDS011;943;51.568;6.998;2022-11-28T09:04:10;12.70;;;8.57;;
1885;SDS011;943;51.568;6.998;2022-11-28T09:06:38;10.20;;;7.77;;
1885;SDS011;943;51.568;6.998;2022-11-28T09:09:06;17.03;;;8.47;;
1885;SDS011;943;51.568;6.998;2022-11-28T09:11:34;9.90;;;7.23;;
1885;SDS011;943;51.568;6.998;2022-11-28T09:14:03;13.10;;;8.03;;
1885;SDS011;943;51.568;6.998;2022-11-28T09:16:32;10.40;;;6.70;;
1885;SDS011;943;51.568;6.998;2022-11-28T09:19:00;10.90;;;8.37;;
1885;SDS011;943;51.568;6.998;2022-11-28T09:21:28;13.60;;;6.60;;
1885;SDS011;943;51.568;6.998;2022-11-28T09:23:55;10.30;;;6.10;;
1885;SDS011;943;51.568;6.998;2022-11-28T09:26:23;13.87;;;7.53;;
1885;SDS011;943;51.568;6.998;2022-11-28T09:28:51;8.60;;;6.80;;
1885;SDS011;943;51.568;6.998;2022-11-28T09:31:19;9.47;;;6.50;;
1885;SDS011;943;51.568;6.998;2022-11-28T09:33:48;7.93;;;6.80;;
1885;SDS011;943;51.568;6.998;2022-11-28T09:36:17;9.80;;;6.40;;
1885;SDS011;943;51.568;6.998;2022-11-28T09:38:49;11.63;;;6.73;;
1885;SDS011;943;51.568;6.998;2022-11-28T09:47:42;9.97;;;7.80;;
1885;SDS011;943;51.568;6.998;2022-11-28T09:50:37;9.70;;;7.23;;
1885;SDS011;943;51.568;6.998;2022-11-28T09:56:15;9.97;;;7.13;;
1885;SDS011;943;51.568;6.998;2022-11-28T09:58:54;15.73;;;7.93;;
1885;SDS011;943;51.568;6.998;2022-11-28T10:04:28;9.53;;;7.50;;
1885;SDS011;943;51.568;6.998;2022-11-28T10:08:03;10.37;;;7.83;;
1885;SDS011;943;51.568;6.998;2022-11-28T10:21:01;12.53;;;8.47;;
1885;SDS011;943;51.568;6.998;2022-11-28T10:24:13;12.90;;;8.60;;
1885;SDS011;943;51.568;6.998;2022-11-28T10:27:19;11.30;;;8.60;;
1885;SDS011;943;51.568;6.998;2022-11-28T10:30:05;15.90;;;8.83;;
1885;SDS011;943;51.568;6.998;2022-11-28T10:35:55;11.60;;;8.60;;
1885;SDS011;943;51.568;6.998;2022-11-28T10:38:30;15.97;;;11.07;;
1885;SDS011;943;51.568;6.998;2022-11-28T10:44:27;13.60;;;9.37;;
1885;SDS011;943;51.568;6.998;2022-11-28T11:01:42;11.63;;;8.77;;
1885;SDS011;943;51.568;6.998;2022-11-28T11:04:20;10.90;;;8.63;;
1885;SDS011;943;51.568;6.998;2022-11-28T11:07:38;11.53;;;8.97;;
1885;SDS011;943;51.568;6.998;2022-11-28T11:12:51;16.90;;;9.70;;
1885;SDS011;943;51.568;6.998;2022-11-28T11:15:29;15.00;;;10.03;;
1885;SDS011;943;51.568;6.998;2022-11-28T11:18:04;13.60;;;10.20;;
1885;SDS011;943;51.568;6.998;2022-11-28T11:21:03;12.03;;;9.80;;
1885;SDS011;943;51.568;6.998;2022-11-28T11:23:42;17.60;;;9.83;;
1885;SDS011;943;51.568;6.998;2022-11-28T11:26:22;12.17;;;9.80;;
1885;SDS011;943;51.568;6.998;2022-11-28T11:29:04;11.23;;;8.63;;
1885;SDS011;943;51.568;6.998;2022-11-28T11:31:49;12.20;;;9.53;;
1885;SDS011;943;51.568;6.998;2022-11-28T11:34:20;12.43;;;9.40;;
1885;SDS011;943;51.568;6.998;2022-11-28T11:36:50;14.90;;;9.70;;
1885;SDS011;943;51.568;6.998;2022-11-28T11:40:00;13.67;;;11.37;;
1885;SDS011;943;51.568;6.998;2022-11-28T11:42:57;13.60;;;9.77;;
1885;SDS011;943;51.568;6.998;2022-11-28T11:45:31;12.60;;;9.83;;
1885;SDS011;943;51.568;6.998;2022-11-28T11:48:02;13.27;;;9.03;;
1885;SDS011;943;51.568;6.998;2022-11-28T11:50:31;12.60;;;9.33;;
1885;SDS011;943;51.568;6.998;2022-11-28T11:55:49;11.23;;;9.40;;
1885;SDS011;943;51.568;6.998;2022-11-28T11:58:25;14.20;;;11.13;;
1885;SDS011;943;51.568;6.998;2022-11-28T12:01:12;12.20;;;9.83;;
1885;SDS011;943;51.568;6.998;2022-11-28T12:03:54;14.50;;;9.73;;
1885;SDS011;943;51.568;6.998;2022-11-28T12:07:00;13.50;;;9.10;;
1885;SDS011;943;51.568;6.998;2022-11-28T12:09:39;13.47;;;10.30;;
1885;SDS011;943;51.568;6.998;2022-11-28T12:12:24;12.83;;;9.13;;
1885;SDS011;943;51.568;6.998;2022-11-28T12:14:56;13.23;;;9.73;;
1885;SDS011;943;51.568;6.998;2022-11-28T12:24:05;13.37;;;9.73;;
1885;SDS011;943;51.568;6.998;2022-11-28T12:26:59;14.13;;;10.07;;
1885;SDS011;943;51.568;6.998;2022-11-28T12:37:35;12.50;;;9.70;;
1885;SDS011;943;51.568;6.998;2022-11-28T12:40:54;12.23;;;10.10;;
1885;SDS011;943;51.568;6.998;2022-11-28T12:51:16;14.80;;;10.10;;
1885;SDS011;943;51.568;6.998;2022-11-28T12:57:31;12.87;;;9.73;;
1885;SDS011;943;51.568;6.998;2022-11-28T13:14:09;15.50;;;9.50;;
1885;SDS011;943;51.568;6.998;2022-11-28T13:20:34;14.93;;;9.90;;
1885;SDS011;943;51.568;6.998;2022-11-28T13:23:39;13.47;;;8.10;;
1885;SDS011;943;51.568;6.998;2022-11-28T13:36:28;12.03;;;8.83;;
1885;SDS011;943;51.568;6.998;2022-11-28T13:39:44;11.67;;;9.20;;
1885;SDS011;943;51.568;6.998;2022-11-28T13:45:50;16.83;;;10.03;;
1885;SDS011;943;51.568;6.998;2022-11-28T13:51:23;13.23;;;10.40;;
1885;SDS011;943;51.568;6.998;2022-11-28T13:57:04;18.20;;;13.10;;
1885;SDS011;943;51.568;6.998;2022-11-28T14:00:18;15.13;;;10.27;;
1885;SDS011;943;51.568;6.998;2022-11-28T14:02:50;15.43;;;11.40;;
1885;SDS011;943;51.568;6.998;2022-11-28T14:05:33;16.60;;;11.83;;
1885;SDS011;943;51.568;6.998;2022-11-28T14:08:07;14.20;;;11.63;;
1885;SDS011;943;51.568;6.998;2022-11-28T14:24:43;11.63;;;10.10;;
1885;SDS011;943;51.568;6.998;2022-11-28T14:27:56;15.63;;;10.90;;
1885;SDS011;943;51.568;6.998;2022-11-28T14:30:36;13.70;;;10.93;;
1885;SDS011;943;51.568;6.998;2022-11-28T14:33:16;13.53;;;10.87;;
1885;SDS011;943;51.568;6.998;2022-11-28T14:44:44;13.30;;;10.10;;
1885;SDS011;943;51.568;6.998;2022-11-28T14:47:33;15.50;;;10.47;;
1885;SDS011;943;51.568;6.998;2022-11-28T14:52:37;15.20;;;10.40;;
1885;SDS011;943;51.568;6.998;2022-11-28T14:55:17;15.10;;;10.13;;
1885;SDS011;943;51.568;6.998;2022-11-28T14:58:01;14.17;;;11.17;;
1885;SDS011;943;51.568;6.998;2022-11-28T15:00:31;12.97;;;10.47;;
1885;SDS011;943;51.568;6.998;2022-11-28T15:03:37;12.40;;;9.50;;
1885;SDS011;943;51.568;6.998;2022-11-28T15:07:39;14.10;;;9.03;;
1885;SDS011;943;51.568;6.998;2022-11-28T15:14:25;11.20;;;9.97;;
1885;SDS011;943;51.568;6.998;2022-11-28T15:17:02;13.20;;;10.53;;
1885;SDS011;943;51.568;6.998;2022-11-28T15:19:43;14.43;;;9.40;;
1885;SDS011;943;51.568;6.998;2022-11-28T15:22:27;12.67;;;10.87;;
1885;SDS011;943;51.568;6.998;2022-11-28T15:28:12;14.40;;;10.77;;
1885;SDS011;943;51.568;6.998;2022-11-28T15:30:44;15.53;;;11.63;;
1885;SDS011;943;51.568;6.998;2022-11-28T15:33:18;14.83;;;10.10;;
1885;SDS011;943;51.568;6.998;2022-11-28T15:35:55;19.30;;;10.63;;
1885;SDS011;943;51.568;6.998;2022-11-28T15:38:49;13.27;;;9.70;;
1885;SDS011;943;51.568;6.998;2022-11-28T15:41:21;13.77;;;10.10;;
1885;SDS011;943;51.568;6.998;2022-11-28T15:43:54;12.00;;;9.60;;
1885;SDS011;943;51.568;6.998;2022-11-28T15:46:25;13.10;;;10.57;;
1885;SDS011;943;51.568;6.998;2022-11-28T15:49:00;12.87;;;9.83;;
1885;SDS011;943;51.568;6.998;2022-11-28T15:51:31;13.77;;;11.20;;
1885;SDS011;943;51.568;6.998;2022-11-28T15:54:23;14.83;;;10.30;;
1885;SDS011;943;51.568;6.998;2022-11-28T15:57:03;13.97;;;11.00;;
1885;SDS011;943;51.568;6.998;2022-11-28T15:59:32;20.00;;;12.80;;
1885;SDS011;943;51.568;6.998;2022-11-28T16:02:02;12.80;;;11.10;;
1885;SDS011;943;51.568;6.998;2022-11-28T16:04:57;15.10;;;11.33;;
1885;SDS011;943;51.568;6.998;2022-11-28T16:07:42;17.20;;;14.40;;
1885;SDS011;943;51.568;6.998;2022-11-28T16:10:32;17.10;;;12.53;;
1885;SDS011;943;51.568;6.998;2022-11-28T16:13:08;16.67;;;12.17;;
1885;SDS011;943;51.568;6.998;2022-11-28T16:15:50;18.20;;;12.37;;
1885;SDS011;943;51.568;6.998;2022-11-28T16:18:28;14.77;;;11.53;;
1885;SDS011;943;51.568;6.998;2022-11-28T16:20:57;14.67;;;11.50;;
1885;SDS011;943;51.568;6.998;2022-11-28T16:23:36;14.30;;;11.17;;
1885;SDS011;943;51.568;6.998;2022-11-28T16:26:51;14.27;;;10.50;;
1885;SDS011;943;51.568;6.998;2022-11-28T16:31:34;13.17;;;10.00;;
1885;SDS011;943;51.568;6.998;2022-11-28T16:34:02;16.93;;;10.90;;
1885;SDS011;943;51.568;6.998;2022-11-28T16:36:32;14.43;;;10.90;;
1885;SDS011;943;51.568;6.998;2022-11-28T16:42:26;15.40;;;10.13;;
1885;SDS011;943;51.568;6.998;2022-11-28T16:44:43;13.10;;;9.70;;
1885;SDS011;943;51.568;6.998;2022-11-28T16:47:22;11.33;;;9.10;;
1885;SDS011;943;51.568;6.998;2022-11-28T16:52:51;14.97;;;11.80;;
1885;SDS011;943;51.568;6.998;2022-11-28T16:58:00;15.30;;;11.70;;
1885;SDS011;943;51.568;6.998;2022-11-28T17:00:57;15.50;;;10.87;;
1885;SDS011;943;51.568;6.998;2022-11-28T17:06:15;13.37;;;10.67;;
1885;SDS011;943;51.568;6.998;2022-11-28T17:09:04;16.60;;;12.00;;
1885;SDS011;943;51.568;6.998;2022-11-28T17:11:41;18.33;;;13.33;;
1885;SDS011;943;51.568;6.998;2022-11-28T17:14:33;19.53;;;12.97;;
1885;SDS011;943;51.568;6.998;2022-11-28T17:17:04;21.83;;;15.13;;
1885;SDS011;943;51.568;6.998;2022-11-28T17:19:42;19.53;;;13.77;;
1885;SDS011;943;51.568;6.998;2022-11-28T17:22:15;18.00;;;11.80;;
1885;SDS011;943;51.568;6.998;2022-11-28T17:24:57;20.90;;;15.40;;
1885;SDS011;943;51.568;6.998;2022-11-28T17:27:27;20.57;;;13.80;;
1885;SDS011;943;51.568;6.998;2022-11-28T17:29:55;19.30;;;14.07;;
1885;SDS011;943;51.568;6.998;2022-11-28T17:32:22;20.67;;;14.90;;
1885;SDS011;943;51.568;6.998;2022-11-28T17:34:51;20.17;;;14.30;;
1885;SDS011;943;51.568;6.998;2022-11-28T17:37:19;19.67;;;14.10;;
1885;SDS011;943;51.568;6.998;2022-11-28T17:39:58;19.40;;;14.40;;
1885;SDS011;943;51.568;6.998;2022-11-28T17:42:44;19.87;;;14.93;;
1885;SDS011;943;51.568;6.998;2022-11-28T17:45:12;22.90;;;14.80;;
1885;SDS011;943;51.568;6.998;2022-11-28T17:47:41;19.90;;;14.00;;
1885;SDS011;943;51.568;6.998;2022-11-28T17:50:10;24.43;;;14.73;;
1885;SDS011;943;51.568;6.998;2022-11-28T17:52:38;24.27;;;15.47;;
1885;SDS011;943;51.568;6.998;2022-11-28T17:55:06;19.33;;;13.70;;
1885;SDS011;943;51.568;6.998;2022-11-28T17:57:34;22.70;;;16.30;;
1885;SDS011;943;51.568;6.998;2022-11-28T18:00:06;21.73;;;14.50;;
1885;SDS011;943;51.568;6.998;2022-11-28T18:02:41;18.47;;;14.30;;
1885;SDS011;943;51.568;6.998;2022-11-28T18:05:10;21.80;;;14.67;;
1885;SDS011;943;51.568;6.998;2022-11-28T18:07:38;19.00;;;13.77;;
1885;SDS011;943;51.568;6.998;2022-11-28T18:10:09;18.93;;;13.07;;
1885;SDS011;943;51.568;6.998;2022-11-28T18:12:38;19.67;;;15.17;;
1885;SDS011;943;51.568;6.998;2022-11-28T18:15:06;18.20;;;14.53;;
1885;SDS011;943;51.568;6.998;2022-11-28T18:17:36;18.00;;;13.83;;
1885;SDS011;943;51.568;6.998;2022-11-28T18:20:09;18.40;;;12.47;;
1885;SDS011;943;51.568;6.998;2022-11-28T18:22:37;19.70;;;13.50;;
1885;SDS011;943;51.568;6.998;2022-11-28T18:25:06;17.30;;;13.30;;
1885;SDS011;943;51.568;6.998;2022-11-28T18:27:38;25.60;;;17.60;;
1885;SDS011;943;51.568;6.998;2022-11-28T18:30:06;19.97;;;15.73;;
1885;SDS011;943;51.568;6.998;2022-11-28T18:32:35;19.20;;;15.07;;
1885;SDS011;943;51.568;6.998;2022-11-28T18:35:03;19.60;;;15.10;;
1885;SDS011;943;51.568;6.998;2022-11-28T18:37:35;28.30;;;19.50;;
1885;SDS011;943;51.568;6.998;2022-11-28T18:40:04;24.43;;;18.00;;
1885;SDS011;943;51.568;6.998;2022-11-28T18:42:35;19.90;;;15.27;;
1885;SDS011;943;51.568;6.998;2022-11-28T18:45:04;19.77;;;15.60;;
1885;SDS011;943;51.568;6.998;2022-11-28T18:47:35;23.67;;;16.50;;
1885;SDS011;943;51.568;6.998;2022-11-28T18:50:04;22.30;;;16.30;;
1885;SDS011;943;51.568;6.998;2022-11-28T18:52:34;22.00;;;16.50;;
1885;SDS011;943;51.568;6.998;2022-11-28T18:55:02;19.37;;;14.40;;
1885;SDS011;943;51.568;6.998;2022-11-28T18:57:30;21.73;;;17.33;;
1885;SDS011;943;51.568;6.998;2022-11-28T19:00:00;21.37;;;13.90;;
1885;SDS011;943;51.568;6.998;2022-11-28T19:02:32;21.40;;;14.70;;
1885;SDS011;943;51.568;6.998;2022-11-28T19:05:01;20.53;;;15.13;;
1885;SDS011;943;51.568;6.998;2022-11-28T19:07:30;26.90;;;15.60;;
1885;SDS011;943;51.568;6.998;2022-11-28T19:09:58;23.17;;;15.37;;
1885;SDS011;943;51.568;6.998;2022-11-28T19:12:27;18.60;;;14.67;;
1885;SDS011;943;51.568;6.998;2022-11-28T19:14:54;18.93;;;14.30;;
1885;SDS011;943;51.568;6.998;2022-11-28T19:17:28;22.77;;;16.20;;
1885;SDS011;943;51.568;6.998;2022-11-28T19:19:55;18.53;;;14.33;;
1885;SDS011;943;51.568;6.998;2022-11-28T19:22:23;21.93;;;16.50;;
1885;SDS011;943;51.568;6.998;2022-11-28T19:24:50;19.67;;;14.57;;
1885;SDS011;943;51.568;6.998;2022-11-28T19:27:18;23.37;;;16.90;;
1885;SDS011;943;51.568;6.998;2022-11-28T19:29:48;20.97;;;15.20;;
1885;SDS011;943;51.568;6.998;2022-11-28T19:32:16;22.70;;;16.27;;
1885;SDS011;943;51.568;6.998;2022-11-28T19:34:44;23.00;;;16.20;;
1885;SDS011;943;51.568;6.998;2022-11-28T19:37:12;19.20;;;16.07;;
1885;SDS011;943;51.568;6.998;2022-11-28T19:39:41;23.63;;;17.20;;
1885;SDS011;943;51.568;6.998;2022-11-28T19:42:10;22.17;;;16.83;;
1885;SDS011;943;51.568;6.998;2022-11-28T19:44:38;21.53;;;16.50;;
1885;SDS011;943;51.568;6.998;2022-11-28T19:47:05;25.93;;;18.70;;
1885;SDS011;943;51.568;6.998;2022-11-28T19:49:33;21.80;;;16.53;;
1885;SDS011;943;51.568;6.998;2022-11-28T19:52:01;21.50;;;17.10;;
1885;SDS011;943;51.568;6.998;2022-11-28T19:54:29;25.97;;;18.90;;
1885;SDS011;943;51.568;6.998;2022-11-28T19:57:00;27.03;;;20.17;;